Darstellungsparameter: Aktuell verwendete Einstellungen:
Skalierung der Graphiken ... ?
xyx+y,   Skalierungsfaktor:      Skalierung: Modus: x, Faktor: 1
Darstellungszeitraum ... ?
Vom - - bis: - -   Zeitraum: 01.01.2018 - 31.12.2019
Min/Max/Avg-Anzeige ... ?
Zeige MMA aktuell
Zeige MMA Monat
Zeige MMA alles
Zeige --A aktuell
Zeige --A Monat
Zeige --A alles
Keine MMA-Anzeige
MMA:
Keine MMA-Graphiken
MMA-Basis: 01.01.2018 - 31.12.2019
Quicknavigation für Darstellung... ?
Tage:      1T, 2T, 3T, 5T -1T -2T -3T -5T +1T +2T +3T +5T
Wochen: 1W, 2W, 3W -1W -2W -3W +1W +2W +3W
Monate: 1M, 3M, 6M -1M -3M -6M +1M +3M +6M
Jahre:    1J, 3J, 5J, 10J -1J -3J -5J -10J +1J +3J +5J +10J
Nutze für die Darstellung ... ?
Originaldaten oder ...
Mittelwerte Minima Maxima auf...
Stundenbasis Tagesbasis Wochenbasis
Monatsbasis Jahresbasis      Datenbasis: Mittelwerte auf Tagesbasis
Darstellen als:
Statistik (Auto) Statistik J:M      Darstellung:
Zur Graphik,    zurück zur Übersicht aller Sensoren.
 
Tabellarische Datenbersicht: ?
 
Sensor: Nr:Datum:Temp:Abs-Feuchte:Windchill:Wind:
Aussen-T/F 1 01-01-2018 00:00:00 7.71458 C 6.84 g/m*3 5.35 C 13.26632 km/h
2 02-01-2018 00:00:00 6.21076 C 6.49 g/m*3 4.66 C 7.58021 km/h
3 03-01-2018 00:00:00 8.40313 C 7.17 g/m*3 5.86 C 15.68403 km/h
4 04-01-2018 00:00:00 8.24792 C 7.54 g/m*3 6.81 C 8.63264 km/h
5 05-01-2018 00:00:00 8.32257 C 7.57 g/m*3 7.53 C 6.02951 km/h
6 06-01-2018 00:00:00 6.22188 C 7.13 g/m*3 6.22 C 0.15 km/h
7 07-01-2018 00:00:00 5.11458 C 6.3 g/m*3 3.93 C 5.77014 km/h
8 08-01-2018 00:00:00 4.61597 C 5.9 g/m*3 2.81 C 7.55104 km/h
9 09-01-2018 00:00:00 5.0191 C 6.33 g/m*3 5.02 C 1.46389 km/h
10 10-01-2018 00:00:00 6.95243 C 7.13 g/m*3 6.95 C 1.45799 km/h
11 11-01-2018 00:00:00 6.99653 C 7.36 g/m*3 7 C 0.58403 km/h
12 12-01-2018 00:00:00 6.57708 C 7.22 g/m*3 6.58 C 0.61736 km/h
13 13-01-2018 00:00:00 5.39062 C 6.26 g/m*3 5.39 C 1.79861 km/h
14 14-01-2018 00:00:00 2.95174 C 5.07 g/m*3 2.95 C 2.72118 km/h
15 15-01-2018 00:00:00 3.65833 C 5.66 g/m*3 3.66 C 4.98194 km/h
16 16-01-2018 00:00:00 6.14618 C 6.28 g/m*3 3.64 C 12.03646 km/h
17 17-01-2018 00:00:00 3.45868 C 5.32 g/m*3 0.76 C 10.24063 km/h
18 18-01-2018 00:00:00 5.94167 C 5.93 g/m*3 3.05 C 14.11215 km/h
19 19-01-2018 00:00:00 3.96146 C 5.5 g/m*3 2.14 C 7.22083 km/h
20 20-01-2018 00:00:00 3.05937 C 5.44 g/m*3 3.06 C 3.72847 km/h
21 21-01-2018 00:00:00 2.72951 C 5.46 g/m*3 2.73 C 4.32535 km/h
22 22-01-2018 00:00:00 5.11563 C 6.42 g/m*3 5.12 C 3.5941 km/h
23 23-01-2018 00:00:00 7.37049 C 7.03 g/m*3 6.39 C 6.20451 km/h
24 24-01-2018 00:00:00 11.38021 C 8.86 g/m*3 11.38 C 8.62951 km/h
25 25-01-2018 00:00:00 9.87465 C 8.58 g/m*3 9.87 C 3.23924 km/h
Sensor: Nr:Datum:Temp:Abs-Feuchte:Windchill:Wind:
Aussen-T/F 26 26-01-2018 00:00:00 6.62222 C 7.24 g/m*3 6.62 C 0.9 km/h
27 27-01-2018 00:00:00 4.73299 C 6.35 g/m*3 4.73 C 3.17639 km/h
28 28-01-2018 00:00:00 7.29028 C 7.08 g/m*3 4.78 C 13.57986 km/h
29 29-01-2018 00:00:00 9.82882 C 7.97 g/m*3 7.9 C 13.46389 km/h
30 30-01-2018 00:00:00 5.41111 C 6.32 g/m*3 5.41 C 2.66736 km/h
31 31-01-2018 00:00:00 7.52153 C 7.3 g/m*3 5.31 C 12.00174 km/h
32 01-02-2018 00:00:00 3.10243 C 5.4 g/m*3 1.32 C 6.65 km/h
33 02-02-2018 00:00:00 3.41285 C 5.56 g/m*3 1.3 C 7.89028 km/h
34 03-02-2018 00:00:00 3.47118 C 5.38 g/m*3 3.47 C 2.27569 km/h
35 04-02-2018 00:00:00 1.1434 C 4.56 g/m*3 -1.19 C 7.35729 km/h
36 05-02-2018 00:00:00 0.32431 C 4.11 g/m*3 0.32 C 3.76007 km/h
37 06-02-2018 00:00:00 -0.78056 C 4.09 g/m*3 -0.78 C 2.96389 km/h
38 07-02-2018 00:00:00 -0.06111 C 4.42 g/m*3 -0.06 C 2.50139 km/h
39 08-02-2018 00:00:00 -2.18819 C 3.69 g/m*3 -2.19 C 1.21736 km/h
40 09-02-2018 00:00:00 -1.96007 C 3.91 g/m*3 -1.96 C 1.11354 km/h
41 10-02-2018 00:00:00 2.22257 C 4.97 g/m*3 0.53 C 5.99722 km/h
42 11-02-2018 00:00:00 3.32535 C 5.25 g/m*3 1.15 C 8.05417 km/h
43 12-02-2018 00:00:00 2.1059 C 4.81 g/m*3 0.18 C 6.61215 km/h
44 13-02-2018 00:00:00 -0.32674 C 4.04 g/m*3 -0.33 C 2.02847 km/h
45 14-02-2018 00:00:00 -1.52222 C 3.64 g/m*3 -1.52 C 2.22014 km/h
46 15-02-2018 00:00:00 1.83299 C 4.9 g/m*3 1.83 C 2.48333 km/h
47 16-02-2018 00:00:00 2.01597 C 5.35 g/m*3 2.02 C 1.68333 km/h
48 17-02-2018 00:00:00 0.40521 C 4.67 g/m*3 0.41 C 1.04444 km/h
49 18-02-2018 00:00:00 -1.01701 C 4.18 g/m*3 -1.02 C 1.60069 km/h
50 19-02-2018 00:00:00 1.11667 C 4.64 g/m*3 1.12 C 1.06146 km/h
Sensor: Nr:Datum:Temp:Abs-Feuchte:Windchill:Wind:
Aussen-T/F 51 20-02-2018 00:00:00 0.74271 C 4.44 g/m*3 0.74 C 1.1566 km/h
52 21-02-2018 00:00:00 1.21181 C 4.06 g/m*3 1.21 C 3.75799 km/h
53 22-02-2018 00:00:00 -0.03507 C 3.58 g/m*3 -2.34 C 6.70729 km/h
54 23-02-2018 00:00:00 -0.725 C 2.87 g/m*3 -3.37 C 7.34201 km/h
55 24-02-2018 00:00:00 -1.57049 C 2.74 g/m*3 -4.74 C 8.49132 km/h
56 25-02-2018 00:00:00 -2.70729 C 2.11 g/m*3 -6.52 C 9.91007 km/h
57 26-02-2018 00:00:00 -4.18854 C 2.42 g/m*3 -8.04 C 9.09861 km/h
58 27-02-2018 00:00:00 -6.00417 C 2.24 g/m*3 -9.08 C 6.31389 km/h
59 28-02-2018 00:00:00 -6.7066 C 1.98 g/m*3 -10.3 C 7.22743 km/h
60 01-03-2018 00:00:00 -2.91424 C 2.15 g/m*3 -6.95 C 10.55313 km/h
61 02-03-2018 00:00:00 -2.40208 C 2.58 g/m*3 -5.56 C 7.99167 km/h
62 03-03-2018 00:00:00 -0.40937 C 4.22 g/m*3 -0.41 C 2.65278 km/h
63 04-03-2018 00:00:00 4.02986 C 5.8 g/m*3 4.03 C 2.88438 km/h
64 05-03-2018 00:00:00 5.96979 C 6.23 g/m*3 5.97 C 3.11806 km/h
65 06-03-2018 00:00:00 4.90694 C 5.87 g/m*3 4.91 C 1.15243 km/h
66 07-03-2018 00:00:00 5.39792 C 6.28 g/m*3 4.2 C 5.93958 km/h
67 08-03-2018 00:00:00 6.19653 C 6.16 g/m*3 4.42 C 8.50521 km/h
68 09-03-2018 00:00:00 5.56528 C 6.63 g/m*3 5.57 C 0.73542 km/h
69 10-03-2018 00:00:00 10.03125 C 8.71 g/m*3 10.03 C 1.29306 km/h
70 11-03-2018 00:00:00 10.51493 C 8.87 g/m*3 10.51 C 2.37292 km/h
71 12-03-2018 00:00:00 9.7 C 8.32 g/m*3 9.7 C 4.65313 km/h
72 13-03-2018 00:00:00 7.76667 C 7.18 g/m*3 5.67 C 11.61493 km/h
73 14-03-2018 00:00:00 6.86458 C 6.42 g/m*3 6.86 C 3.45278 km/h
74 15-03-2018 00:00:00 6.40382 C 6.23 g/m*3 6.4 C 4.83681 km/h
75 16-03-2018 00:00:00 7.64097 C 7.66 g/m*3 7.64 C 2.3625 km/h
Sensor: Nr:Datum:Temp:Abs-Feuchte:Windchill:Wind:
Aussen-T/F 76 17-03-2018 00:00:00 -0.44516 C 3.9 g/m*3 -4.47 C 12.59211 km/h
77 18-03-2018 00:00:00 -1.64028 C 3.26 g/m*3 -6.02 C 12.99583 km/h
78 19-03-2018 00:00:00 -0.54479 C 3.07 g/m*3 -3.19 C 7.43993 km/h
79 20-03-2018 00:00:00 0.29653 C 3.63 g/m*3 -1.86 C 6.45729 km/h
80 21-03-2018 00:00:00 1.2059 C 4.02 g/m*3 1.21 C 3.86007 km/h
81 22-03-2018 00:00:00 3.06319 C 5.35 g/m*3 0.89 C 7.90903 km/h
82 23-03-2018 00:00:00 6.14028 C 6.53 g/m*3 6.14 C 4.91215 km/h
83 24-03-2018 00:00:00 5.20069 C 5.5 g/m*3 5.2 C 4.27847 km/h
84 25-03-2018 00:00:00 5.42862 C 5.35 g/m*3 5.43 C 1.58116 km/h
85 26-03-2018 00:00:00 7.61146 C 5.89 g/m*3 7.61 C 4.51944 km/h
86 27-03-2018 00:00:00 5.82222 C 6 g/m*3 5.82 C 2.61076 km/h
87 28-03-2018 00:00:00 8.50799 C 7.86 g/m*3 7.24 C 8.07014 km/h
88 29-03-2018 00:00:00 7.11424 C 5.91 g/m*3 5.45 C 8.70694 km/h
89 30-03-2018 00:00:00 6.82813 C 6.26 g/m*3 6.83 C 3.19583 km/h
90 31-03-2018 00:00:00 8.09792 C 6.55 g/m*3 8.1 C 3.37431 km/h
91 01-04-2018 00:00:00 7.66979 C 6.6 g/m*3 6.45 C 7.26771 km/h
92 02-04-2018 00:00:00 8.78611 C 6.51 g/m*3 8.79 C 2.61667 km/h
93 03-04-2018 00:00:00 13.35 C 7.85 g/m*3 13.35 C 5.34063 km/h
94 04-04-2018 00:00:00 11.17187 C 8.61 g/m*3 11.17 C 3.56354 km/h
95 05-04-2018 00:00:00 8.16042 C 7.03 g/m*3 6.83 C 8.06528 km/h
96 06-04-2018 00:00:00 6.97187 C 5.64 g/m*3 6.27 C 5.13125 km/h
97 07-04-2018 00:00:00 12.50035 C 7.31 g/m*3 12.5 C 4.33785 km/h
98 08-04-2018 00:00:00 14.90417 C 8.58 g/m*3 14.9 C 1.37778 km/h
99 09-04-2018 00:00:00 13.73333 C 8.63 g/m*3 13.73 C 2.37743 km/h
100 10-04-2018 00:00:00 13.3816 C 9.08 g/m*3 13.38 C 3.81424 km/h
Sensor: Nr:Datum:Temp:Abs-Feuchte:Windchill:Wind:
Aussen-T/F 101 11-04-2018 00:00:00 11.50035 C 9.04 g/m*3 11.5 C 3.41215 km/h
102 12-04-2018 00:00:00 13.06493 C 9.17 g/m*3 13.06 C 2.3941 km/h
103 13-04-2018 00:00:00 10.32188 C 8.45 g/m*3 10.32 C 3.15069 km/h
104 14-04-2018 00:00:00 13.08403 C 8.7 g/m*3 13.08 C 4.25278 km/h
105 15-04-2018 00:00:00 14.37465 C 10.1 g/m*3 14.37 C 1.85 km/h
106 16-04-2018 00:00:00 13.42882 C 9.15 g/m*3 13.43 C 3.92951 km/h
107 17-04-2018 00:00:00 13.72569 C 8.87 g/m*3 13.73 C 1.92604 km/h
108 18-04-2018 00:00:00 15.73264 C 9.36 g/m*3 15.73 C 3.05938 km/h
109 19-04-2018 00:00:00 17.21806 C 9.72 g/m*3 17.22 C 3.07951 km/h
110 20-04-2018 00:00:00 17.08681 C 9.86 g/m*3 17.09 C 0.76736 km/h
111 21-04-2018 00:00:00 18.09931 C 11.01 g/m*3 18.1 C 1.74896 km/h
112 22-04-2018 00:00:00 18.53681 C 11.59 g/m*3 18.54 C 2.82118 km/h
113 23-04-2018 00:00:00 18.01181 C 10.85 g/m*3 18.01 C 5.78785 km/h
114 24-04-2018 00:00:00 14.03854 C 8.78 g/m*3 14.04 C 5.82257 km/h
115 25-04-2018 00:00:00 13.47917 C 8.83 g/m*3 13.48 C 7.36354 km/h
116 26-04-2018 00:00:00 11.09167 C 6.55 g/m*3 11.09 C 9.10486 km/h
117 27-04-2018 00:00:00 11.96181 C 7.21 g/m*3 11.96 C 3.81458 km/h
118 28-04-2018 00:00:00 12.62917 C 8.08 g/m*3 12.63 C 4.77917 km/h
119 29-04-2018 00:00:00 14.24792 C 10.51 g/m*3 14.25 C 1.89306 km/h
120 30-04-2018 00:00:00 13.44931 C 9.07 g/m*3 13.45 C 11.19028 km/h
121 01-05-2018 00:00:00 9.59063 C 6.38 g/m*3 7.95 C 11.16215 km/h
122 02-05-2018 00:00:00 9.44549 C 6.87 g/m*3 9.45 C 1.49861 km/h
123 03-05-2018 00:00:00 12.35347 C 7.47 g/m*3 12.35 C 5.33854 km/h
124 04-05-2018 00:00:00 13.14618 C 7.49 g/m*3 13.15 C 4.03958 km/h
125 05-05-2018 00:00:00 15.50764 C 8.1 g/m*3 15.51 C 5.19028 km/h
Sensor: Nr:Datum:Temp:Abs-Feuchte:Windchill:Wind:
Aussen-T/F 126 06-05-2018 00:00:00 17.0059 C 8.35 g/m*3 17.01 C 5.45382 km/h
127 07-05-2018 00:00:00 17.60312 C 9.27 g/m*3 17.6 C 4.27014 km/h
128 08-05-2018 00:00:00 18.08264 C 9.66 g/m*3 18.08 C 3.9066 km/h
129 09-05-2018 00:00:00 17.125 C 10.4 g/m*3 17.13 C 1.76007 km/h
130 10-05-2018 00:00:00 14.09271 C 10.56 g/m*3 14.09 C 2.65521 km/h
131 11-05-2018 00:00:00 14.47951 C 9.6 g/m*3 14.48 C 3.24028 km/h
132 12-05-2018 00:00:00 16.39236 C 10.49 g/m*3 16.39 C 2.48299 km/h
133 13-05-2018 00:00:00 14.62278 C 11.67 g/m*3 14.62 C 4.05943 km/h
134 14-05-2018 00:00:00 16.77361 C 12.71 g/m*3 16.77 C 4.97049 km/h
135 15-05-2018 00:00:00 15.91597 C 10.19 g/m*3 15.92 C 3.5066 km/h
136 16-05-2018 00:00:00 15.4941 C 11 g/m*3 15.49 C 5.56806 km/h
137 17-05-2018 00:00:00 13.78333 C 8.76 g/m*3 13.78 C 10.21319 km/h
138 18-05-2018 00:00:00 12.14792 C 8.01 g/m*3 12.15 C 5.71875 km/h
139 19-05-2018 00:00:00 13.63299 C 8.69 g/m*3 13.63 C 3.95486 km/h
140 20-05-2018 00:00:00 14.00278 C 10.17 g/m*3 14 C 2.39514 km/h
141 21-05-2018 00:00:00 17.43819 C 11.61 g/m*3 17.44 C 2.63264 km/h
142 22-05-2018 00:00:00 16.97917 C 11.95 g/m*3 16.98 C 2.05625 km/h
143 23-05-2018 00:00:00 17.30243 C 13.04 g/m*3 17.3 C 0.78993 km/h
144 24-05-2018 00:00:00 17.125 C 12.81 g/m*3 17.13 C 2.15556 km/h
145 25-05-2018 00:00:00 19.81944 C 13.72 g/m*3 19.82 C 2.28681 km/h
146 26-05-2018 00:00:00 20.84826 C 13.87 g/m*3 20.85 C 2.68403 km/h
147 27-05-2018 00:00:00 20.3191 C 14.34 g/m*3 20.32 C 1.83542 km/h
148 28-05-2018 00:00:00 21.47083 C 15.37 g/m*3 21.47 C 1.89931 km/h
149 29-05-2018 00:00:00 20.77292 C 15.54 g/m*3 20.77 C 1.35556 km/h
150 30-05-2018 00:00:00 21.53403 C 14.66 g/m*3 21.53 C 1.98368 km/h
Sensor: Nr:Datum:Temp:Abs-Feuchte:Windchill:Wind:
Aussen-T/F 151 31-05-2018 00:00:00 22.62083 C 14.99 g/m*3 22.62 C 3.45486 km/h
152 01-06-2018 00:00:00 19.10729 C 14.54 g/m*3 19.11 C 4.35868 km/h
153 02-06-2018 00:00:00 19.22917 C 13.47 g/m*3 19.23 C 5.28611 km/h
154 03-06-2018 00:00:00 19.42708 C 12.97 g/m*3 19.43 C 2.82708 km/h
155 04-06-2018 00:00:00 20.95938 C 13.57 g/m*3 20.96 C 3.43438 km/h
156 05-06-2018 00:00:00 20.70035 C 13.91 g/m*3 20.7 C 5.52604 km/h
157 06-06-2018 00:00:00 21.09375 C 13.67 g/m*3 21.09 C 2.13264 km/h
158 07-06-2018 00:00:00 21.15174 C 14.89 g/m*3 21.15 C 2.54375 km/h
159 08-06-2018 00:00:00 20.94375 C 15.38 g/m*3 20.94 C 4.05243 km/h
160 09-06-2018 00:00:00 21.9125 C 16.22 g/m*3 21.91 C 3.81424 km/h
161 10-06-2018 00:00:00 21.38239 C 16.14 g/m*3 21.38 C 2.36972 km/h
162 11-06-2018 00:00:00 19.19444 C 15.41 g/m*3 19.19 C 1.45208 km/h
163 12-06-2018 00:00:00 16.41979 C 12.62 g/m*3 16.42 C 3.10035 km/h
164 13-06-2018 00:00:00 14.8941 C 10.14 g/m*3 14.89 C 5.97188 km/h
165 14-06-2018 00:00:00 14.94132 C 10.31 g/m*3 14.94 C 3.65938 km/h
166 15-06-2018 00:00:00 17.84236 C 13.39 g/m*3 17.84 C 1.08993 km/h
167 16-06-2018 00:00:00 19.99306 C 13.59 g/m*3 19.99 C 2.24653 km/h
168 17-06-2018 00:00:00 17.94167 C 11.51 g/m*3 17.94 C 5.17674 km/h
169 18-06-2018 00:00:00 17.81667 C 11.85 g/m*3 17.82 C 4.87361 km/h
170 19-06-2018 00:00:00 18.89201 C 13.7 g/m*3 18.89 C 2.72743 km/h
171 20-06-2018 00:00:00 23.07639 C 14.86 g/m*3 23.08 C 2.81944 km/h
172 21-06-2018 00:00:00 17.92639 C 10.62 g/m*3 17.93 C 10.65278 km/h
173 22-06-2018 00:00:00 13.74097 C 8.13 g/m*3 13.74 C 9.82257 km/h
174 23-06-2018 00:00:00 13.76424 C 9.09 g/m*3 13.76 C 6.13715 km/h
175 24-06-2018 00:00:00 15.88264 C 9.85 g/m*3 15.88 C 6.78854 km/h
Sensor: Nr:Datum:Temp:Abs-Feuchte:Windchill:Wind:
Aussen-T/F 176 25-06-2018 00:00:00 17.09201 C 11.37 g/m*3 17.09 C 6.07222 km/h
177 26-06-2018 00:00:00 17.67396 C 11.25 g/m*3 17.67 C 5.95694 km/h
178 27-06-2018 00:00:00 19.15694 C 11.13 g/m*3 19.16 C 4.64965 km/h
179 28-06-2018 00:00:00 20.71076 C 11.02 g/m*3 20.71 C 5.60243 km/h
180 29-06-2018 00:00:00 24.11424 C 12.27 g/m*3 24.11 C 4.67813 km/h
181 30-06-2018 00:00:00 22.06215 C 11.09 g/m*3 22.06 C 6.23715 km/h
182 01-07-2018 00:00:00 20.86597 C 7.77 g/m*3 20.87 C 8.82986 km/h
183 02-07-2018 00:00:00 20.44792 C 8.16 g/m*3 20.45 C 6.0309 km/h
184 03-07-2018 00:00:00 20.73299 C 9.04 g/m*3 20.73 C 3.5059 km/h
185 04-07-2018 00:00:00 18.84167 C 13.04 g/m*3 18.84 C 1.27917 km/h
186 05-07-2018 00:00:00 19.41111 C 14.79 g/m*3 19.41 C 3.39375 km/h
187 06-07-2018 00:00:00 20.03056 C 13.11 g/m*3 20.03 C 6.24271 km/h
188 07-07-2018 00:00:00 20.66701 C 12.08 g/m*3 20.67 C 5.14271 km/h
189 08-07-2018 00:00:00 19.71181 C 9.91 g/m*3 19.71 C 6.18611 km/h
190 09-07-2018 00:00:00 19.32361 C 11.18 g/m*3 19.32 C 6.80556 km/h
191 10-07-2018 00:00:00 17.13715 C 10.66 g/m*3 17.14 C 7.72882 km/h
192 11-07-2018 00:00:00 16.10729 C 11.28 g/m*3 16.11 C 3.98125 km/h
193 12-07-2018 00:00:00 19.59688 C 13.57 g/m*3 19.6 C 3.14028 km/h
194 13-07-2018 00:00:00 19.72042 C 13.16 g/m*3 19.72 C 2.14155 km/h
195 14-07-2018 00:00:00 21.51493 C 12.82 g/m*3 21.51 C 3.57118 km/h
196 15-07-2018 00:00:00 21.63021 C 12.17 g/m*3 21.63 C 3.4066 km/h
197 16-07-2018 00:00:00 22.30868 C 12.16 g/m*3 22.31 C 3.51597 km/h
198 17-07-2018 00:00:00 21.01771 C 12.08 g/m*3 21.02 C 4.44653 km/h
199 18-07-2018 00:00:00 20.29479 C 11.58 g/m*3 20.29 C 4.925 km/h
200 19-07-2018 00:00:00 20.92431 C 11.04 g/m*3 20.92 C 3.30521 km/h
Sensor: Nr:Datum:Temp:Abs-Feuchte:Windchill:Wind:
Aussen-T/F 201 20-07-2018 00:00:00 21.5559 C 11.66 g/m*3 21.56 C 2.28993 km/h
202 21-07-2018 00:00:00 20.6125 C 13.86 g/m*3 20.61 C 3.49583 km/h
203 22-07-2018 00:00:00 21.61458 C 13.3 g/m*3 21.61 C 4.60347 km/h
204 23-07-2018 00:00:00 22.37917 C 13.31 g/m*3 22.38 C 3.60694 km/h
205 24-07-2018 00:00:00 23.70278 C 13.64 g/m*3 23.7 C 2.55278 km/h
206 25-07-2018 00:00:00 25.50069 C 13.57 g/m*3 25.5 C 3.23056 km/h
207 26-07-2018 00:00:00 27.18785 C 14.1 g/m*3 27.19 C 3.77708 km/h
208 27-07-2018 00:00:00 26.11146 C 12.37 g/m*3 26.11 C 3.51493 km/h
209 28-07-2018 00:00:00 21.97743 C 14.81 g/m*3 21.98 C 3.04097 km/h
210 29-07-2018 00:00:00 23.50521 C 13.97 g/m*3 23.51 C 3.90382 km/h
211 30-07-2018 00:00:00 24.29931 C 14.26 g/m*3 24.3 C 1.89028 km/h
212 31-07-2018 00:00:00 25.46875 C 14.65 g/m*3 25.47 C 4.19306 km/h
213 01-08-2018 00:00:00 20.74271 C 15.79 g/m*3 20.74 C 0.31111 km/h
214 02-08-2018 00:00:00 23.73056 C 15.9 g/m*3 23.73 C 1.25243 km/h
215 03-08-2018 00:00:00 26.4684 C 15.25 g/m*3 26.47 C 1.16632 km/h
216 04-08-2018 00:00:00 26.38714 C 14.42 g/m*3 26.39 C 3.28821 km/h
217 05-08-2018 00:00:00 24.70486 C 13.5 g/m*3 24.7 C 6.56667 km/h
218 06-08-2018 00:00:00 24.16944 C 12.66 g/m*3 24.17 C 2.99236 km/h
219 07-08-2018 00:00:00 26.73646 C 14.08 g/m*3 26.74 C 3.08958 km/h
220 08-08-2018 00:00:00 25.29618 C 14.35 g/m*3 25.3 C 7.74653 km/h
221 09-08-2018 00:00:00 20.57778 C 14.79 g/m*3 20.58 C 3.725 km/h
222 10-08-2018 00:00:00 18.35486 C 10.26 g/m*3 18.35 C 9.11354 km/h
223 11-08-2018 00:00:00 18.37083 C 9.4 g/m*3 18.37 C 5.41806 km/h
224 12-08-2018 00:00:00 18.15451 C 9.78 g/m*3 18.15 C 2.11215 km/h
225 13-08-2018 00:00:00 17.68854 C 12.35 g/m*3 17.69 C 4.30764 km/h
Sensor: Nr:Datum:Temp:Abs-Feuchte:Windchill:Wind:
Aussen-T/F 226 14-08-2018 00:00:00 18.53958 C 13.43 g/m*3 18.54 C 5.0875 km/h
227 15-08-2018 00:00:00 19.375 C 13.2 g/m*3 19.38 C 1.80694 km/h
228 16-08-2018 00:00:00 20.74444 C 12.86 g/m*3 20.74 C 1.88924 km/h
229 17-08-2018 00:00:00 19.75903 C 13.06 g/m*3 19.76 C 6.20903 km/h
230 18-08-2018 00:00:00 18.88785 C 11.13 g/m*3 18.89 C 2.50139 km/h
231 19-08-2018 00:00:00 20.30521 C 11.86 g/m*3 20.31 C 3.60174 km/h
232 20-08-2018 00:00:00 20.84444 C 13.36 g/m*3 20.84 C 3.3066 km/h
233 21-08-2018 00:00:00 21.96979 C 13.69 g/m*3 21.97 C 1.92014 km/h
234 22-08-2018 00:00:00 23.24757 C 13.71 g/m*3 23.25 C 3.28229 km/h
235 23-08-2018 00:00:00 22.88681 C 14.1 g/m*3 22.89 C 4.65382 km/h
236 24-08-2018 00:00:00 19.03368 C 10.7 g/m*3 19.03 C 6.54271 km/h
237 25-08-2018 00:00:00 14.525 C 8.7 g/m*3 14.53 C 5.44653 km/h
238 26-08-2018 00:00:00 13.80556 C 8.08 g/m*3 13.81 C 3.69514 km/h
239 27-08-2018 00:00:00 18.12604 C 10.86 g/m*3 18.13 C 7.71493 km/h
240 28-08-2018 00:00:00 18.12917 C 10.47 g/m*3 18.13 C 2.88611 km/h
241 29-08-2018 00:00:00 17.15556 C 11.71 g/m*3 17.16 C 1.31146 km/h
242 30-08-2018 00:00:00 17.22778 C 11.01 g/m*3 17.23 C 7.1434 km/h
243 31-08-2018 00:00:00 15.05521 C 9.3 g/m*3 15.06 C 2.95764 km/h
244 01-09-2018 00:00:00 14.30833 C 8.49 g/m*3 14.31 C 3.17847 km/h
245 02-09-2018 00:00:00 14.27188 C 9.39 g/m*3 14.27 C 1.04236 km/h
246 03-09-2018 00:00:00 18.05417 C 12.41 g/m*3 18.05 C 1.52118 km/h
247 04-09-2018 00:00:00 20.01736 C 13.73 g/m*3 20.02 C 1.27465 km/h
248 05-09-2018 00:00:00 20.91701 C 13.37 g/m*3 20.92 C 0.92604 km/h
249 06-09-2018 00:00:00 18.07014 C 13.53 g/m*3 18.07 C 2.5934 km/h
250 07-09-2018 00:00:00 15.72639 C 11.65 g/m*3 15.73 C 4.62847 km/h
Sensor: Nr:Datum:Temp:Abs-Feuchte:Windchill:Wind:
Aussen-T/F 251 08-09-2018 00:00:00 13.53889 C 8.97 g/m*3 13.54 C 3.57882 km/h
252 09-09-2018 00:00:00 16.94236 C 10.19 g/m*3 16.94 C 1.94688 km/h
253 10-09-2018 00:00:00 17.5 C 10.7 g/m*3 17.5 C 3.28403 km/h
254 11-09-2018 00:00:00 18.85868 C 11.38 g/m*3 18.86 C 5.47639 km/h
255 12-09-2018 00:00:00 19.08646 C 11.68 g/m*3 19.09 C 4.25174 km/h
256 13-09-2018 00:00:00 16.3625 C 11.93 g/m*3 16.36 C 3.12465 km/h
257 14-09-2018 00:00:00 16.95174 C 10.29 g/m*3 16.95 C 2.13403 km/h
258 15-09-2018 00:00:00 15.14028 C 9.1 g/m*3 15.14 C 1.64236 km/h
259 16-09-2018 00:00:00 14.7184 C 9 g/m*3 14.72 C 2.22708 km/h
260 17-09-2018 00:00:00 16.79306 C 9.83 g/m*3 16.79 C 0.61667 km/h
261 18-09-2018 00:00:00 19.05208 C 11.48 g/m*3 19.05 C 3.21701 km/h
262 19-09-2018 00:00:00 20.67951 C 12.9 g/m*3 20.68 C 5.20417 km/h
263 20-09-2018 00:00:00 19.17153 C 11.91 g/m*3 19.17 C 4.2684 km/h
264 21-09-2018 00:00:00 15.93472 C 10.69 g/m*3 15.93 C 6.0309 km/h
265 22-09-2018 00:00:00 12.7566 C 8.63 g/m*3 12.76 C 6.55625 km/h
266 23-09-2018 00:00:00 12.33056 C 10.27 g/m*3 12.33 C 5.07639 km/h
267 24-09-2018 00:00:00 9.92396 C 8.02 g/m*3 9.92 C 4.49514 km/h
268 25-09-2018 00:00:00 8.38785 C 7.27 g/m*3 8.39 C 1.4934 km/h
269 26-09-2018 00:00:00 8.82917 C 7.21 g/m*3 8.83 C 0.35556 km/h
270 27-09-2018 00:00:00 11.32708 C 8.57 g/m*3 11.33 C 0.08333 km/h
271 28-09-2018 00:00:00 10.18526 C 8.66 g/m*3 10.19 C 2.01614 km/h
272 29-09-2018 00:00:00 8.2941 C 6.89 g/m*3 8.29 C 1.77118 km/h
273 30-09-2018 00:00:00 7.9427 C 6.81 g/m*3 7.94 C 0.31317 km/h
274 01-10-2018 00:00:00 9.71701 C 7.5 g/m*3 9.35 C 5.29028 km/h
275 02-10-2018 00:00:00 9.17604 C 7.81 g/m*3 7.65 C 10.00174 km/h
Sensor: Nr:Datum:Temp:Abs-Feuchte:Windchill:Wind:
Aussen-T/F 276 03-10-2018 00:00:00 12.2809 C 8.9 g/m*3 12.28 C 4.68264 km/h
277 04-10-2018 00:00:00 9.78056 C 8.08 g/m*3 9.78 C 0.8191 km/h
278 05-10-2018 00:00:00 10.63021 C 8.63 g/m*3 10.63 C 0.50694 km/h
279 06-10-2018 00:00:00 12.7691 C 9.95 g/m*3 12.77 C 0.41389 km/h
280 07-10-2018 00:00:00 13.00243 C 10.1 g/m*3 13 C 2.18333 km/h
281 08-10-2018 00:00:00 10.50347 C 8.59 g/m*3 10.5 C 0 km/h
282 09-10-2018 00:00:00 11.75035 C 9.59 g/m*3 11.75 C 0 km/h
283 10-10-2018 00:00:00 13.21285 C 10.38 g/m*3 13.21 C 0.62569 km/h
284 11-10-2018 00:00:00 14.21701 C 10.79 g/m*3 14.22 C 0.79722 km/h
285 12-10-2018 00:00:00 15.87882 C 11.67 g/m*3 15.88 C 0.89271 km/h
286 13-10-2018 00:00:00 15.57986 C 11.19 g/m*3 15.58 C 0.48924 km/h
287 14-10-2018 00:00:00 14.79965 C 10.52 g/m*3 14.8 C 0.86979 km/h
288 15-10-2018 00:00:00 13.825 C 10.09 g/m*3 13.83 C 0 km/h
289 16-10-2018 00:00:00 12.87292 C 9.73 g/m*3 12.87 C 0 km/h
290 17-10-2018 00:00:00 12.82847 C 9.91 g/m*3 12.83 C 0.00556 km/h
291 18-10-2018 00:00:00 14.04618 C 10.7 g/m*3 14.05 C 1.79028 km/h
292 19-10-2018 00:00:00 12.08785 C 9.42 g/m*3 12.09 C 0.61667 km/h
293 20-10-2018 00:00:00 11.03542 C 8.65 g/m*3 11.04 C 1.86285 km/h
294 21-10-2018 00:00:00 7.3066 C 7.23 g/m*3 7.31 C 0.30556 km/h
295 22-10-2018 00:00:00 7.67014 C 7.33 g/m*3 7.67 C 0.60174 km/h
296 23-10-2018 00:00:00 9.04306 C 7.49 g/m*3 8.06 C 7.2 km/h
297 24-10-2018 00:00:00 14.07604 C 10.46 g/m*3 14.08 C 10.49757 km/h
298 25-10-2018 00:00:00 12.94722 C 9.42 g/m*3 12.95 C 3.93576 km/h
299 26-10-2018 00:00:00 10.21354 C 7.7 g/m*3 10.21 C 4.89549 km/h
300 27-10-2018 00:00:00 6.27118 C 6.72 g/m*3 6.27 C 1.42118 km/h
Sensor: Nr:Datum:Temp:Abs-Feuchte:Windchill:Wind:
Aussen-T/F 301 28-10-2018 00:00:00 5.67778 C 5.91 g/m*3 4.13 C 7.2566 km/h
302 29-10-2018 00:00:00 6.43264 C 6.33 g/m*3 4.79 C 8.1059 km/h
303 30-10-2018 00:00:00 6.2809 C 6.77 g/m*3 4.51 C 8.54444 km/h
304 31-10-2018 00:00:00 7.45382 C 6.93 g/m*3 7.45 C 1.11215 km/h
305 01-11-2018 00:00:00 6.13194 C 6.96 g/m*3 6.13 C 0.48924 km/h
306 02-11-2018 00:00:00 8.86597 C 8.22 g/m*3 8.87 C 0.78368 km/h
307 03-11-2018 00:00:00 3.50521 C 5.93 g/m*3 3.51 C 0.67222 km/h
308 04-11-2018 00:00:00 6.86007 C 7.31 g/m*3 6.86 C 0.38333 km/h
309 05-11-2018 00:00:00 10.39097 C 8.87 g/m*3 10.39 C 0.67361 km/h
310 06-11-2018 00:00:00 8.41806 C 8.13 g/m*3 8.42 C 0.3066 km/h
311 07-11-2018 00:00:00 9.32118 C 8.32 g/m*3 9.32 C 0.58542 km/h
312 08-11-2018 00:00:00 10.425 C 8.6 g/m*3 10.43 C 0.92951 km/h
313 09-11-2018 00:00:00 9.62604 C 8.53 g/m*3 9.63 C 0.3 km/h
314 10-11-2018 00:00:00 11.90347 C 9.55 g/m*3 11.9 C 3.35139 km/h
315 11-11-2018 00:00:00 12.04618 C 9.68 g/m*3 12.05 C 2.21146 km/h
316 12-11-2018 00:00:00 13.70069 C 10.66 g/m*3 13.7 C 1.59861 km/h
317 13-11-2018 00:00:00 10.46076 C 8.95 g/m*3 10.46 C 4.08542 km/h
318 14-11-2018 00:00:00 6.18264 C 7.1 g/m*3 6.18 C 0.64444 km/h
319 15-11-2018 00:00:00 6.9816 C 7.09 g/m*3 6.98 C 2.73681 km/h
320 16-11-2018 00:00:00 5.92778 C 6.49 g/m*3 5.93 C 1.62882 km/h
321 17-11-2018 00:00:00 2.75417 C 5.19 g/m*3 2.75 C 3.52917 km/h
322 18-11-2018 00:00:00 1.8566 C 4.39 g/m*3 1.86 C 2.95833 km/h
323 19-11-2018 00:00:00 3.57014 C 5.02 g/m*3 1.97 C 6.32674 km/h
324 20-11-2018 00:00:00 3.50972 C 4.93 g/m*3 1.56 C 7.37153 km/h
325 21-11-2018 00:00:00 2.50312 C 5.1 g/m*3 2.5 C 2.6941 km/h
Sensor: Nr:Datum:Temp:Abs-Feuchte:Windchill:Wind:
Aussen-T/F 326 22-11-2018 00:00:00 2.91458 C 5.21 g/m*3 2.91 C 1.31632 km/h
327 23-11-2018 00:00:00 0.10868 C 4.66 g/m*3 0.11 C 0.55 km/h
328 24-11-2018 00:00:00 4.74792 C 6.43 g/m*3 4.75 C 0.55556 km/h
329 25-11-2018 00:00:00 5.98785 C 6.95 g/m*3 5.99 C 0.51111 km/h
330 26-11-2018 00:00:00 6.65625 C 6.66 g/m*3 6.66 C 1.89167 km/h
331 27-11-2018 00:00:00 4.12465 C 5.37 g/m*3 4.12 C 1.54063 km/h
332 28-11-2018 00:00:00 3.7 C 5.71 g/m*3 3.7 C 1.97951 km/h
333 29-11-2018 00:00:00 5.67875 C 6.59 g/m*3 5.68 C 3.46551 km/h
334 30-11-2018 00:00:00 7.44514 C 7.55 g/m*3 7.45 C 0.94549 km/h
335 01-12-2018 00:00:00 7.48993 C 7.33 g/m*3 7.49 C 2.10972 km/h
336 02-12-2018 00:00:00 11.28056 C 9.48 g/m*3 11.28 C 5.58958 km/h
337 03-12-2018 00:00:00 11.76701 C 10.06 g/m*3 11.77 C 5.55764 km/h
338 04-12-2018 00:00:00 6.48715 C 6.82 g/m*3 6.49 C 3.99167 km/h
339 05-12-2018 00:00:00 3.60729 C 5.96 g/m*3 3.61 C 0.56771 km/h
340 06-12-2018 00:00:00 9.76042 C 8.69 g/m*3 9.45 C 5.09965 km/h
341 07-12-2018 00:00:00 11.22882 C 8.8 g/m*3 11.23 C 13.66111 km/h
342 08-12-2018 00:00:00 7.97361 C 7.3 g/m*3 5.22 C 16.51667 km/h
343 09-12-2018 00:00:00 8.02544 C 7.29 g/m*3 5.82 C 12.63659 km/h
344 10-12-2018 00:00:00 4.96771 C 6.19 g/m*3 3.14 C 7.82257 km/h
345 11-12-2018 00:00:00 3.84375 C 5.9 g/m*3 3.84 C 3.11181 km/h
346 12-12-2018 00:00:00 2.70801 C 5.57 g/m*3 2.71 C 0.53519 km/h
347 13-12-2018 00:00:00 1.36181 C 4.65 g/m*3 1.36 C 2.34931 km/h
348 14-12-2018 00:00:00 1.15521 C 4.06 g/m*3 1.16 C 2.10382 km/h
349 15-12-2018 00:00:00 0.62683 C 3.98 g/m*3 0.63 C 2.64599 km/h
350 16-12-2018 00:00:00 0.77743 C 4.63 g/m*3 0.78 C 1.95799 km/h
Sensor: Nr:Datum:Temp:Abs-Feuchte:Windchill:Wind:
Aussen-T/F 351 17-12-2018 00:00:00 4.19722 C 6.11 g/m*3 4.2 C 3.82917 km/h
352 18-12-2018 00:00:00 5.08229 C 6.17 g/m*3 5.08 C 4.64028 km/h
353 19-12-2018 00:00:00 6.54495 C 6.68 g/m*3 6.54 C 2.72125 km/h
354 20-12-2018 00:00:00 7.58741 C 7.22 g/m*3 6.6 C 6.32797 km/h
355 21-12-2018 00:00:00 10.78507 C 8.54 g/m*3 9.26 C 12.03333 km/h
356 22-12-2018 00:00:00 9.94266 C 8.04 g/m*3 8.86 C 8.38147 km/h
357 23-12-2018 00:00:00 8.60868 C 8.05 g/m*3 7.96 C 5.68715 km/h
358 24-12-2018 00:00:00 4.88924 C 6.13 g/m*3 3.68 C 5.76146 km/h
359 25-12-2018 00:00:00 1.85208 C 5.13 g/m*3 1.85 C 1.84618 km/h
360 26-12-2018 00:00:00 -0.91736 C 4.34 g/m*3 -0.92 C 1.68507 km/h
361 27-12-2018 00:00:00 0.08125 C 4.67 g/m*3 0.08 C 0.02778 km/h
362 28-12-2018 00:00:00 0.225 C 4.67 g/m*3 0.23 C 2.8559 km/h
363 29-12-2018 00:00:00 2.70972 C 5.44 g/m*3 0.67 C 7.23681 km/h
364 30-12-2018 00:00:00 7.50313 C 7 g/m*3 6.22 C 7.39896 km/h
365 31-12-2018 00:00:00 7.59271 C 7.76 g/m*3 7.59 C 2.89201 km/h
366 01-01-2019 00:00:00 7.09271 C 7.18 g/m*3 5.53 C 8.26563 km/h
367 02-01-2019 00:00:00 3.70104 C 5.16 g/m*3 1.4 C 8.7934 km/h
368 03-01-2019 00:00:00 2.03715 C 5.18 g/m*3 2.04 C 1.94688 km/h
369 04-01-2019 00:00:00 3.13785 C 5.52 g/m*3 3.14 C 4.59583 km/h
370 05-01-2019 00:00:00 5.92632 C 6.75 g/m*3 3.71 C 10.2814 km/h
371 06-01-2019 00:00:00 5.76944 C 6.56 g/m*3 4.38 C 6.73993 km/h
372 07-01-2019 00:00:00 5.50417 C 6.31 g/m*3 4.25 C 6.15417 km/h
373 08-01-2019 00:00:00 6.62222 C 6.5 g/m*3 3.51 C 16.75417 km/h
374 09-01-2019 00:00:00 3.90486 C 5.3 g/m*3 0.56 C 14.00139 km/h
375 10-01-2019 00:00:00 2.05694 C 4.67 g/m*3 0.72 C 5.05833 km/h
Sensor: Nr:Datum:Temp:Abs-Feuchte:Windchill:Wind:
Aussen-T/F 376 11-01-2019 00:00:00 2.82847 C 5.57 g/m*3 2.83 C 4.89375 km/h
377 12-01-2019 00:00:00 5.96702 C 6.73 g/m*3 3.93 C 9.4367 km/h
378 13-01-2019 00:00:00 7.73715 C 7.65 g/m*3 5.94 C 9.92257 km/h
379 14-01-2019 00:00:00 5.07083 C 6.11 g/m*3 2.82 C 9.66493 km/h
380 15-01-2019 00:00:00 4.78854 C 5.97 g/m*3 2.87 C 8.06424 km/h
381 16-01-2019 00:00:00 5.27187 C 5.91 g/m*3 3.48 C 7.91701 km/h
382 17-01-2019 00:00:00 5.0066 C 5.94 g/m*3 2.23 C 12.16181 km/h
383 18-01-2019 00:00:00 0.77569 C 4.7 g/m*3 0.78 C 1.61667 km/h
384 19-01-2019 00:00:00 -2.72396 C 3.74 g/m*3 -2.72 C 1.07778 km/h
385 20-01-2019 00:00:00 -4.97187 C 3.17 g/m*3 -4.97 C 0.05556 km/h
386 21-01-2019 00:00:00 -6.20972 C 2.93 g/m*3 -6.21 C 0.21111 km/h
387 22-01-2019 00:00:00 -4.96667 C 3.14 g/m*3 -4.97 C 0.78403 km/h
388 23-01-2019 00:00:00 -1.57743 C 3.88 g/m*3 -1.58 C 1.41597 km/h
389 24-01-2019 00:00:00 -1.91736 C 3.56 g/m*3 -1.92 C 2.39757 km/h
390 25-01-2019 00:00:00 0.28403 C 4.35 g/m*3 -2.25 C 7.52917 km/h
391 26-01-2019 00:00:00 4.48229 C 6.06 g/m*3 1.72 C 11.54896 km/h
392 27-01-2019 00:00:00 5.94583 C 6.52 g/m*3 4.45 C 7.2125 km/h
393 28-01-2019 00:00:00 3.17118 C 5.47 g/m*3 0.05 C 11.95764 km/h
394 29-01-2019 00:00:00 1.73021 C 4.89 g/m*3 1.73 C 3.30972 km/h
395 30-01-2019 00:00:00 0.45972 C 4.67 g/m*3 0.46 C 2.56042 km/h
396 31-01-2019 00:00:00 -0.09826 C 4.56 g/m*3 -0.1 C 0.61181 km/h
397 01-02-2019 00:00:00 1.74826 C 5.22 g/m*3 1.75 C 2.25729 km/h
398 02-02-2019 00:00:00 2.46701 C 5.56 g/m*3 2.47 C 1.11424 km/h
399 03-02-2019 00:00:00 2.7 C 5.17 g/m*3 0.95 C 6.35208 km/h
400 04-02-2019 00:00:00 1.83229 C 4.78 g/m*3 1.83 C 2.03576 km/h
Sensor: Nr:Datum:Temp:Abs-Feuchte:Windchill:Wind:
Aussen-T/F 401 05-02-2019 00:00:00 4.34375 C 5.28 g/m*3 4.34 C 3.16076 km/h
402 06-02-2019 00:00:00 1.17639 C 4.73 g/m*3 1.18 C 1.14826 km/h
403 07-02-2019 00:00:00 5.09549 C 6.02 g/m*3 4 C 5.51563 km/h
404 08-02-2019 00:00:00 7.42604 C 6.65 g/m*3 6.37 C 6.49063 km/h
405 09-02-2019 00:00:00 8.6309 C 6.87 g/m*3 6.27 C 14.69618 km/h
406 10-02-2019 00:00:00 7.96076 C 7.3 g/m*3 5.59 C 13.64931 km/h
407 11-02-2019 00:00:00 4.86736 C 5.83 g/m*3 2.86 C 8.45313 km/h
408 12-02-2019 00:00:00 3.71597 C 5.41 g/m*3 2.47 C 5.38715 km/h
409 13-02-2019 00:00:00 1.77951 C 5.01 g/m*3 1.78 C 1.55556 km/h
410 14-02-2019 00:00:00 0.77431 C 4.74 g/m*3 0.77 C 0.18889 km/h
411 15-02-2019 00:00:00 2.33854 C 5.08 g/m*3 2.34 C 1.52292 km/h
412 16-02-2019 00:00:00 3.375 C 5.4 g/m*3 3.38 C 1.05 km/h
413 17-02-2019 00:00:00 3.45451 C 5.51 g/m*3 3.45 C 0.85556 km/h
414 18-02-2019 00:00:00 3.69653 C 5.41 g/m*3 3.7 C 0.08889 km/h
415 19-02-2019 00:00:00 5.85868 C 6.31 g/m*3 5.86 C 4.05208 km/h
416 20-02-2019 00:00:00 4.70694 C 5.94 g/m*3 4.71 C 3.82396 km/h
417 21-02-2019 00:00:00 6.3625 C 6.69 g/m*3 6.36 C 1.91701 km/h
418 22-02-2019 00:00:00 9.91111 C 8.23 g/m*3 9.91 C 1.74063 km/h
419 23-02-2019 00:00:00 5.41076 C 5.5 g/m*3 5.41 C 2.82049 km/h
420 24-02-2019 00:00:00 3.39271 C 4.46 g/m*3 3.39 C 1.06285 km/h
421 25-02-2019 00:00:00 5.05139 C 5.05 g/m*3 5.05 C 0.85556 km/h
422 26-02-2019 00:00:00 6.18646 C 5.89 g/m*3 6.19 C 0.7 km/h
423 27-02-2019 00:00:00 6.63576 C 6.02 g/m*3 6.64 C 0.66771 km/h
424 28-02-2019 00:00:00 8.81701 C 6.88 g/m*3 7.56 C 8.26389 km/h
425 01-03-2019 00:00:00 8.12708 C 7.67 g/m*3 7.6 C 5.08299 km/h
Sensor: Nr:Datum:Temp:Abs-Feuchte:Windchill:Wind:
Aussen-T/F 426 02-03-2019 00:00:00 8.64236 C 7.33 g/m*3 7.51 C 7.58333 km/h
427 03-03-2019 00:00:00 11.11319 C 8.07 g/m*3 11.11 C 14.64375 km/h
428 04-03-2019 00:00:00 9.71875 C 7.23 g/m*3 7.28 C 17.49583 km/h
429 05-03-2019 00:00:00 6.87396 C 6.27 g/m*3 4.69 C 11.10174 km/h
430 06-03-2019 00:00:00 10.01944 C 7.43 g/m*3 10.02 C 3.02014 km/h
431 07-03-2019 00:00:00 10.20729 C 7.54 g/m*3 8.16 C 15.05764 km/h
432 08-03-2019 00:00:00 8.18854 C 6.62 g/m*3 6.16 C 11.77465 km/h
433 09-03-2019 00:00:00 10.36875 C 7.38 g/m*3 8.07 C 17.70694 km/h
434 10-03-2019 00:00:00 9.55694 C 7.02 g/m*3 7.36 C 15.05556 km/h
435 11-03-2019 00:00:00 4.7934 C 5.35 g/m*3 2 C 12.03646 km/h
436 12-03-2019 00:00:00 6.61563 C 5.3 g/m*3 5.21 C 7.28958 km/h
437 13-03-2019 00:00:00 6.20382 C 6.09 g/m*3 3.06 C 16.23264 km/h
438 14-03-2019 00:00:00 7.03611 C 6.78 g/m*3 4.51 C 13.30313 km/h
439 15-03-2019 00:00:00 10.13993 C 8.27 g/m*3 8.37 C 12.83368 km/h
440 16-03-2019 00:00:00 10.23472 C 8.16 g/m*3 8.5 C 12.67083 km/h
441 17-03-2019 00:00:00 8.66319 C 6.71 g/m*3 6.38 C 14.17535 km/h
442 18-03-2019 00:00:00 4.96458 C 5.77 g/m*3 3.21 C 7.55799 km/h
443 19-03-2019 00:00:00 3.83715 C 5.06 g/m*3 3.84 C 1.64375 km/h
444 20-03-2019 00:00:00 5.47951 C 5.42 g/m*3 5.48 C 1.55972 km/h
445 21-03-2019 00:00:00 7.53194 C 5.9 g/m*3 7.53 C 2.00347 km/h
446 22-03-2019 00:00:00 9.15799 C 6.43 g/m*3 9.16 C 2.43438 km/h
447 23-03-2019 00:00:00 6.18576 C 6.43 g/m*3 6.19 C 3.01458 km/h
448 24-03-2019 00:00:00 6.4583 C 6.26 g/m*3 6.46 C 4.16421 km/h
449 25-03-2019 00:00:00 5.13299 C 5.9 g/m*3 3.06 C 8.93264 km/h
450 26-03-2019 00:00:00 6.64792 C 6.18 g/m*3 6.65 C 4.81042 km/h
Sensor: Nr:Datum:Temp:Abs-Feuchte:Windchill:Wind:
Aussen-T/F 451 27-03-2019 00:00:00 6.81528 C 6.18 g/m*3 6.82 C 2.65556 km/h
452 28-03-2019 00:00:00 7.32535 C 6.47 g/m*3 7.33 C 2.7125 km/h
453 29-03-2019 00:00:00 8.96493 C 6.97 g/m*3 8.96 C 3.02431 km/h
454 30-03-2019 00:00:00 10.50104 C 7.06 g/m*3 10.5 C 3.54861 km/h
455 31-03-2019 00:00:00 10.31594 C 7.68 g/m*3 10.32 C 2.38623 km/h
456 01-04-2019 00:00:00 9.41771 C 6.81 g/m*3 9.42 C 4.33194 km/h
457 02-04-2019 00:00:00 10.74375 C 7.5 g/m*3 10.74 C 3.93194 km/h
458 03-04-2019 00:00:00 8.37083 C 7.36 g/m*3 8.37 C 1.94549 km/h
459 04-04-2019 00:00:00 6.05799 C 6.79 g/m*3 6.06 C 1.46458 km/h
460 05-04-2019 00:00:00 6.32535 C 6.83 g/m*3 6.33 C 1.74236 km/h
461 06-04-2019 00:00:00 10.20313 C 7.94 g/m*3 10.2 C 2.74479 km/h
462 07-04-2019 00:00:00 12.02083 C 8.01 g/m*3 12.02 C 3.89306 km/h
463 08-04-2019 00:00:00 12.69757 C 9.48 g/m*3 12.7 C 1.27882 km/h
464 09-04-2019 00:00:00 12.23472 C 9.56 g/m*3 12.23 C 1.83854 km/h
465 10-04-2019 00:00:00 10.80035 C 6.51 g/m*3 10.19 C 6.83542 km/h
466 11-04-2019 00:00:00 6.94306 C 4.71 g/m*3 5.69 C 6.93681 km/h
467 12-04-2019 00:00:00 5.01528 C 4.01 g/m*3 3.21 C 7.79861 km/h
468 13-04-2019 00:00:00 3.85556 C 4.76 g/m*3 3.86 C 4.46007 km/h
469 14-04-2019 00:00:00 5.53576 C 5.39 g/m*3 5.54 C 4.95521 km/h
470 15-04-2019 00:00:00 10.42187 C 6.72 g/m*3 9.97 C 5.95938 km/h
471 16-04-2019 00:00:00 11.20417 C 6.8 g/m*3 11.2 C 4.46493 km/h
472 17-04-2019 00:00:00 12.74861 C 9.36 g/m*3 12.75 C 3.09826 km/h
473 18-04-2019 00:00:00 14.16528 C 7.93 g/m*3 14.17 C 5.55069 km/h
474 19-04-2019 00:00:00 15.41285 C 7.41 g/m*3 15.41 C 5.63056 km/h
475 20-04-2019 00:00:00 14.87153 C 7.8 g/m*3 14.87 C 3.90382 km/h
Sensor: Nr:Datum:Temp:Abs-Feuchte:Windchill:Wind:
Aussen-T/F 476 21-04-2019 00:00:00 15.62813 C 7.79 g/m*3 15.63 C 3.06354 km/h
477 22-04-2019 00:00:00 14.99375 C 7.63 g/m*3 14.99 C 5.28368 km/h
478 23-04-2019 00:00:00 15.15903 C 7.91 g/m*3 15.16 C 4.94722 km/h
479 24-04-2019 00:00:00 15.11424 C 9.44 g/m*3 15.11 C 4.87222 km/h
480 25-04-2019 00:00:00 13.28785 C 9.06 g/m*3 13.29 C 4.63819 km/h
481 26-04-2019 00:00:00 11.86806 C 8.86 g/m*3 11.87 C 3.58854 km/h
482 27-04-2019 00:00:00 9.34688 C 8.09 g/m*3 9.35 C 3.60451 km/h
483 28-04-2019 00:00:00 8.50208 C 7.09 g/m*3 7.78 C 5.90139 km/h
484 29-04-2019 00:00:00 8.56736 C 7.24 g/m*3 8.57 C 3.78993 km/h
485 30-04-2019 00:00:00 14.05278 C 8.31 g/m*3 14.05 C 7.74514 km/h
486 01-05-2019 00:00:00 12.7816 C 8.54 g/m*3 12.78 C 3.63056 km/h
487 02-05-2019 00:00:00 11.4566 C 8.27 g/m*3 11.46 C 4.02083 km/h
488 03-05-2019 00:00:00 11.00208 C 7.34 g/m*3 11 C 7.49826 km/h
489 04-05-2019 00:00:00 6.36493 C 6.26 g/m*3 5.1 C 6.63958 km/h
490 05-05-2019 00:00:00 6.67882 C 6.18 g/m*3 5.85 C 5.38264 km/h
491 06-05-2019 00:00:00 7.62465 C 6.22 g/m*3 7.62 C 3.69722 km/h
492 07-05-2019 00:00:00 9.6066 C 6.76 g/m*3 9.61 C 2.54444 km/h
493 08-05-2019 00:00:00 9.41667 C 8.02 g/m*3 9.42 C 1.87639 km/h
494 09-05-2019 00:00:00 11.20938 C 9.02 g/m*3 11.21 C 3.33472 km/h
495 10-05-2019 00:00:00 12.49306 C 8.53 g/m*3 12.49 C 5.40625 km/h
496 11-05-2019 00:00:00 10.05833 C 8.78 g/m*3 10.06 C 3.22396 km/h
497 12-05-2019 00:00:00 9.40625 C 6.58 g/m*3 8.58 C 6.83229 km/h
498 13-05-2019 00:00:00 9.96736 C 5.78 g/m*3 9.46 C 5.88368 km/h
499 14-05-2019 00:00:00 9.58299 C 5.9 g/m*3 9.1 C 5.62465 km/h
500 15-05-2019 00:00:00 9.79896 C 5.66 g/m*3 9.32 C 5.69444 km/h
Sensor: Nr:Datum:Temp:Abs-Feuchte:Windchill:Wind:
Aussen-T/F 501 16-05-2019 00:00:00 10.83854 C 6.98 g/m*3 10.84 C 4.89201 km/h
502 17-05-2019 00:00:00 11.60069 C 9.3 g/m*3 11.6 C 2.49271 km/h
503 18-05-2019 00:00:00 14.44306 C 10.6 g/m*3 14.44 C 1.72396 km/h
504 19-05-2019 00:00:00 15.85694 C 11.29 g/m*3 15.86 C 3.36146 km/h
505 20-05-2019 00:00:00 13.90347 C 10.77 g/m*3 13.9 C 5.82431 km/h
506 21-05-2019 00:00:00 12.49722 C 10.23 g/m*3 12.5 C 8.26007 km/h
507 22-05-2019 00:00:00 13.38785 C 9.39 g/m*3 13.39 C 5.53958 km/h
508 23-05-2019 00:00:00 15.11875 C 9.58 g/m*3 15.12 C 2.43056 km/h
509 24-05-2019 00:00:00 16.93437 C 10.22 g/m*3 16.93 C 2.5066 km/h
510 25-05-2019 00:00:00 15.60035 C 8.97 g/m*3 15.6 C 4.91111 km/h
511 26-05-2019 00:00:00 15.92014 C 10.1 g/m*3 15.92 C 5.11042 km/h
512 27-05-2019 00:00:00 14.98924 C 11.65 g/m*3 14.99 C 1.43229 km/h
513 28-05-2019 00:00:00 13.95729 C 10.24 g/m*3 13.96 C 5.32535 km/h
514 29-05-2019 00:00:00 14.97951 C 8.74 g/m*3 14.98 C 4.30938 km/h
515 30-05-2019 00:00:00 15.62396 C 10.46 g/m*3 15.62 C 4.33958 km/h
516 31-05-2019 00:00:00 19.22674 C 12.25 g/m*3 19.23 C 4.08021 km/h
517 01-06-2019 00:00:00 19.98924 C 12.83 g/m*3 19.99 C 2.98229 km/h
518 02-06-2019 00:00:00 22.09028 C 13.76 g/m*3 22.09 C 2.70833 km/h
519 03-06-2019 00:00:00 20.85625 C 13.34 g/m*3 20.86 C 3.51354 km/h
520 04-06-2019 00:00:00 21.5059 C 13.89 g/m*3 21.51 C 3.54063 km/h
521 05-06-2019 00:00:00 23.45243 C 14.31 g/m*3 23.45 C 2.78264 km/h
522 06-06-2019 00:00:00 15.94271 C 10.67 g/m*3 15.94 C 8.29931 km/h
523 07-06-2019 00:00:00 15.6809 C 10.21 g/m*3 15.68 C 6.49722 km/h
524 08-06-2019 00:00:00 16.15243 C 8.63 g/m*3 16.15 C 11.89271 km/h
525 09-06-2019 00:00:00 16.23438 C 10.07 g/m*3 16.23 C 3.25729 km/h
Sensor: Nr:Datum:Temp:Abs-Feuchte:Windchill:Wind:
Aussen-T/F 526 10-06-2019 00:00:00 19.2684 C 12.22 g/m*3 19.27 C 4.23958 km/h
527 11-06-2019 00:00:00 17.19063 C 12.22 g/m*3 17.19 C 1.59271 km/h
528 12-06-2019 00:00:00 16.48854 C 11.55 g/m*3 16.49 C 4.25868 km/h
529 13-06-2019 00:00:00 15.92743 C 10.25 g/m*3 15.93 C 5.36042 km/h
530 14-06-2019 00:00:00 17.88507 C 12.61 g/m*3 17.89 C 1.74688 km/h
531 15-06-2019 00:00:00 19.62083 C 13.41 g/m*3 19.62 C 4.74444 km/h
532 16-06-2019 00:00:00 19.34479 C 11.88 g/m*3 19.34 C 4.13576 km/h
533 17-06-2019 00:00:00 18.93646 C 11.87 g/m*3 18.94 C 2.29132 km/h
534 18-06-2019 00:00:00 21.4625 C 13.68 g/m*3 21.46 C 1.57014 km/h
535 19-06-2019 00:00:00 22.17049 C 14.37 g/m*3 22.17 C 2.86354 km/h
536 20-06-2019 00:00:00 19.48229 C 13.47 g/m*3 19.48 C 5.3566 km/h
537 21-06-2019 00:00:00 18.55694 C 10.86 g/m*3 18.56 C 4.43056 km/h
538 22-06-2019 00:00:00 19.16771 C 11.45 g/m*3 19.17 C 4.30556 km/h
539 23-06-2019 00:00:00 21.78854 C 13.72 g/m*3 21.79 C 4.22083 km/h
540 24-06-2019 00:00:00 24.3809 C 15.34 g/m*3 24.38 C 4.76389 km/h
541 25-06-2019 00:00:00 26.30625 C 16.26 g/m*3 26.31 C 3.02049 km/h
542 26-06-2019 00:00:00 27.27336 C 17.1 g/m*3 27.27 C 5.13686 km/h
543 27-06-2019 00:00:00 24.42326 C 13.08 g/m*3 24.42 C 7.55694 km/h
544 28-06-2019 00:00:00 21.63368 C 11.43 g/m*3 21.63 C 3.73438 km/h
545 29-06-2019 00:00:00 24.00937 C 11.62 g/m*3 24.01 C 4.35069 km/h
546 30-06-2019 00:00:00 25.32014 C 14.64 g/m*3 25.32 C 5.88368 km/h
547 01-07-2019 00:00:00 22.68715 C 12.25 g/m*3 22.69 C 6.96285 km/h
548 02-07-2019 00:00:00 19.04306 C 9.98 g/m*3 19.04 C 5.46042 km/h
549 03-07-2019 00:00:00 17.43472 C 9.08 g/m*3 17.43 C 5.33542 km/h
550 04-07-2019 00:00:00 18.23021 C 8.79 g/m*3 18.23 C 3.81493 km/h
Sensor: Nr:Datum:Temp:Abs-Feuchte:Windchill:Wind:
Aussen-T/F 551 05-07-2019 00:00:00 20.73889 C 10.2 g/m*3 20.74 C 4.43368 km/h
552 06-07-2019 00:00:00 21.18681 C 11.39 g/m*3 21.19 C 5.94097 km/h
553 07-07-2019 00:00:00 17.78763 C 10.32 g/m*3 17.79 C 7.32191 km/h
554 08-07-2019 00:00:00 14.44931 C 8.79 g/m*3 14.45 C 4.8625 km/h
555 09-07-2019 00:00:00 15.40868 C 8.69 g/m*3 15.41 C 4.71875 km/h
556 10-07-2019 00:00:00 16.98854 C 8.38 g/m*3 16.99 C 3.84063 km/h
557 11-07-2019 00:00:00 17.76076 C 12.08 g/m*3 17.76 C 1.31076 km/h
558 12-07-2019 00:00:00 17.3375 C 13.59 g/m*3 17.34 C 2.32014 km/h
559 13-07-2019 00:00:00 17.99896 C 12.82 g/m*3 18 C 5.50243 km/h
560 14-07-2019 00:00:00 16.92569 C 10.89 g/m*3 16.93 C 6.91632 km/h
561 15-07-2019 00:00:00 16.34757 C 10.29 g/m*3 16.35 C 5.29444 km/h
562 16-07-2019 00:00:00 16.0375 C 10.29 g/m*3 16.04 C 4.47083 km/h
563 17-07-2019 00:00:00 17.21979 C 11.18 g/m*3 17.22 C 4.45729 km/h
564 18-07-2019 00:00:00 19.06944 C 12.13 g/m*3 19.07 C 1.90972 km/h
565 19-07-2019 00:00:00 20.2441 C 13.63 g/m*3 20.24 C 3.12847 km/h
566 20-07-2019 00:00:00 21.61736 C 14.28 g/m*3 21.62 C 4.16285 km/h
567 21-07-2019 00:00:00 21.96076 C 13.31 g/m*3 21.96 C 4.91736 km/h
568 22-07-2019 00:00:00 22.29861 C 13.03 g/m*3 22.3 C 3.24618 km/h
569 23-07-2019 00:00:00 25.05139 C 14.22 g/m*3 25.05 C 3.35556 km/h
570 24-07-2019 00:00:00 27.05069 C 14.88 g/m*3 27.05 C 2.26354 km/h
571 25-07-2019 00:00:00 28.69028 C 15.13 g/m*3 28.69 C 3.17882 km/h
572 26-07-2019 00:00:00 27.21528 C 14.6 g/m*3 27.22 C 3.0809 km/h
573 27-07-2019 00:00:00 23.20069 C 16.62 g/m*3 23.2 C 3.61389 km/h
574 28-07-2019 00:00:00 19.86597 C 15.53 g/m*3 19.87 C 3.90104 km/h
575 29-07-2019 00:00:00 21.16354 C 13.61 g/m*3 21.16 C 3.65556 km/h
Sensor: Nr:Datum:Temp:Abs-Feuchte:Windchill:Wind:
Aussen-T/F 576 30-07-2019 00:00:00 21.86528 C 12.82 g/m*3 21.87 C 5.2809 km/h
577 31-07-2019 00:00:00 21.06111 C 11.17 g/m*3 21.06 C 6.26354 km/h
578 01-08-2019 00:00:00 19.46424 C 10.98 g/m*3 19.46 C 3.89688 km/h
579 02-08-2019 00:00:00 20.52743 C 12.45 g/m*3 20.53 C 3.30556 km/h
580 03-08-2019 00:00:00 20.39271 C 12.83 g/m*3 20.39 C 8.72292 km/h
581 04-08-2019 00:00:00 20.53854 C 12.19 g/m*3 20.54 C 2.86389 km/h
582 05-08-2019 00:00:00 22.56562 C 13.5 g/m*3 22.57 C 4.09653 km/h
583 06-08-2019 00:00:00 19.97604 C 13.81 g/m*3 19.98 C 3.64132 km/h
584 07-08-2019 00:00:00 19.07535 C 14.31 g/m*3 19.08 C 3.07153 km/h
585 08-08-2019 00:00:00 20.39132 C 13.35 g/m*3 20.39 C 5.46944 km/h
586 09-08-2019 00:00:00 19.85833 C 14.88 g/m*3 19.86 C 0.79236 km/h
587 10-08-2019 00:00:00 20.67986 C 13.9 g/m*3 20.68 C 7.7059 km/h
588 11-08-2019 00:00:00 16.99444 C 11.7 g/m*3 16.99 C 2.95174 km/h
589 12-08-2019 00:00:00 16.4441 C 11.84 g/m*3 16.44 C 3.65278 km/h
590 13-08-2019 00:00:00 15.94306 C 10.67 g/m*3 15.94 C 5.33403 km/h
591 14-08-2019 00:00:00 16.52882 C 10.69 g/m*3 16.53 C 3.79861 km/h
592 15-08-2019 00:00:00 17.34306 C 13.07 g/m*3 17.34 C 5.15139 km/h
593 16-08-2019 00:00:00 17.72257 C 12.19 g/m*3 17.72 C 5.73264 km/h
594 17-08-2019 00:00:00 18.07049 C 13.36 g/m*3 18.07 C 2.66632 km/h
595 18-08-2019 00:00:00 19.8941 C 15.51 g/m*3 19.89 C 4.75694 km/h
596 19-08-2019 00:00:00 18.3684 C 12.23 g/m*3 18.37 C 4.84549 km/h
597 20-08-2019 00:00:00 15.78611 C 10.76 g/m*3 15.79 C 1.24618 km/h
598 21-08-2019 00:00:00 16.52222 C 10.61 g/m*3 16.52 C 1.51736 km/h
599 22-08-2019 00:00:00 17.27465 C 10.64 g/m*3 17.27 C 1.60208 km/h
600 23-08-2019 00:00:00 18.44792 C 11.19 g/m*3 18.45 C 2.36632 km/h
Sensor: Nr:Datum:Temp:Abs-Feuchte:Windchill:Wind:
Aussen-T/F 601 24-08-2019 00:00:00 19.52326 C 11.88 g/m*3 19.52 C 2.67396 km/h
602 25-08-2019 00:00:00 21.57431 C 14.28 g/m*3 21.57 C 1.39479 km/h
603 26-08-2019 00:00:00 22.3684 C 15.94 g/m*3 22.37 C 0.85174 km/h
604 27-08-2019 00:00:00 22.81979 C 16.16 g/m*3 22.82 C 0.89201 km/h
605 28-08-2019 00:00:00 23.38924 C 15.36 g/m*3 23.39 C 3.07813 km/h
606 29-08-2019 00:00:00 22.04201 C 14.97 g/m*3 22.04 C 3.15764 km/h
607 30-08-2019 00:00:00 21.0059 C 13.28 g/m*3 21.01 C 1.87778 km/h
608 31-08-2019 00:00:00 22.0566 C 14.04 g/m*3 22.06 C 2.34618 km/h
609 01-09-2019 00:00:00 18.73056 C 12.21 g/m*3 18.73 C 4.84896 km/h
610 02-09-2019 00:00:00 15.43958 C 8.93 g/m*3 15.44 C 2.90972 km/h
611 03-09-2019 00:00:00 15.68611 C 9.42 g/m*3 15.69 C 3.81736 km/h
612 04-09-2019 00:00:00 16.83646 C 11.04 g/m*3 16.84 C 5.32361 km/h
613 05-09-2019 00:00:00 15.41285 C 9.85 g/m*3 15.41 C 6.91979 km/h
614 06-09-2019 00:00:00 13.54271 C 8.36 g/m*3 13.54 C 2.30035 km/h
615 07-09-2019 00:00:00 12.95382 C 9.82 g/m*3 12.95 C 1.11875 km/h
616 08-09-2019 00:00:00 12.67778 C 10.48 g/m*3 12.68 C 1.02292 km/h
617 09-09-2019 00:00:00 12.50868 C 9.95 g/m*3 12.51 C 0.62222 km/h
618 10-09-2019 00:00:00 11.86563 C 9.01 g/m*3 11.87 C 1.27153 km/h
619 11-09-2019 00:00:00 13.34931 C 9.38 g/m*3 13.35 C 3.32083 km/h
620 12-09-2019 00:00:00 19.07292 C 12.83 g/m*3 19.07 C 5.07257 km/h
621 13-09-2019 00:00:00 17.76319 C 13.35 g/m*3 17.76 C 2.56076 km/h
622 14-09-2019 00:00:00 15.58229 C 10.78 g/m*3 15.58 C 1.03194 km/h
623 15-09-2019 00:00:00 15.40243 C 10.32 g/m*3 15.4 C 0.29444 km/h
624 16-09-2019 00:00:00 16.09444 C 10.79 g/m*3 16.09 C 2.79514 km/h
625 17-09-2019 00:00:00 15.6191 C 9.81 g/m*3 15.62 C 7.71493 km/h
Sensor: Nr:Datum:Temp:Abs-Feuchte:Windchill:Wind:
Aussen-T/F 626 18-09-2019 00:00:00 11.41215 C 7.6 g/m*3 11.41 C 3.00799 km/h
627 19-09-2019 00:00:00 10.47361 C 7.22 g/m*3 10.47 C 2.36771 km/h
628 20-09-2019 00:00:00 10.72153 C 7.12 g/m*3 10.72 C 2.07396 km/h
629 21-09-2019 00:00:00 12.32465 C 7.54 g/m*3 12.32 C 1.46806 km/h
630 22-09-2019 00:00:00 14.8625 C 9.65 g/m*3 14.86 C 0.47778 km/h
631 23-09-2019 00:00:00 16.54479 C 11.93 g/m*3 16.54 C 4.12674 km/h
632 24-09-2019 00:00:00 14.13194 C 10.98 g/m*3 14.13 C 0.63611 km/h
633 25-09-2019 00:00:00 15.26806 C 11.83 g/m*3 15.27 C 3.64549 km/h
634 26-09-2019 00:00:00 16.26111 C 12.83 g/m*3 16.26 C 2.32917 km/h
635 27-09-2019 00:00:00 16.20451 C 11.99 g/m*3 16.2 C 6.36285 km/h
636 28-09-2019 00:00:00 15.30903 C 11.1 g/m*3 15.31 C 9.7816 km/h
637 29-09-2019 00:00:00 16.12778 C 11.4 g/m*3 16.13 C 9.27535 km/h
638 30-09-2019 00:00:00 15.31424 C 10.49 g/m*3 15.31 C 11.19965 km/h
639 01-10-2019 00:00:00 15.98125 C 12.01 g/m*3 15.98 C 6.38333 km/h
640 02-10-2019 00:00:00 12.49479 C 9.13 g/m*3 12.49 C 7.54097 km/h
641 03-10-2019 00:00:00 9.77535 C 8.39 g/m*3 9.78 C 2.6566 km/h
642 04-10-2019 00:00:00 10.31563 C 9.12 g/m*3 10.32 C 2.49479 km/h
643 05-10-2019 00:00:00 10.64965 C 8.61 g/m*3 10.65 C 3.49583 km/h
644 06-10-2019 00:00:00 8.34063 C 8.11 g/m*3 8.34 C 0.84097 km/h
645 07-10-2019 00:00:00 10.09167 C 8.92 g/m*3 10.09 C 1.20799 km/h
646 08-10-2019 00:00:00 12.83333 C 10.63 g/m*3 12.83 C 5.34132 km/h
647 09-10-2019 00:00:00 11.68715 C 9.67 g/m*3 11.69 C 6.15069 km/h
648 10-10-2019 00:00:00 11.67509 C 9.02 g/m*3 11.68 C 7.65474 km/h
649 11-10-2019 00:00:00 12.72361 C 9.95 g/m*3 12.72 C 4.43958 km/h
650 12-10-2019 00:00:00 13.63368 C 10.51 g/m*3 13.63 C 3.71458 km/h
Sensor: Nr:Datum:Temp:Abs-Feuchte:Windchill:Wind:
Aussen-T/F 651 13-10-2019 00:00:00 16.44722 C 12.77 g/m*3 16.45 C 0.84688 km/h
652 14-10-2019 00:00:00 16.00938 C 12.22 g/m*3 16.01 C 0.57951 km/h
653 15-10-2019 00:00:00 14.32674 C 11.35 g/m*3 14.33 C 1.88889 km/h
654 16-10-2019 00:00:00 12.65347 C 10.45 g/m*3 12.65 C 2.06354 km/h
655 17-10-2019 00:00:00 14.64826 C 11.42 g/m*3 14.65 C 2.20521 km/h
656 18-10-2019 00:00:00 12.52604 C 10.1 g/m*3 12.53 C 3.73403 km/h
657 19-10-2019 00:00:00 12.88561 C 10.24 g/m*3 12.89 C 1.25396 km/h
658 20-10-2019 00:00:00 13.60139 C 11.48 g/m*3 13.6 C 0.10592 km/h
659 21-10-2019 00:00:00 13.67735 C 11.06 g/m*3 13.68 C 1.77735 km/h
660 22-10-2019 00:00:00 11.49819 C 9.49 g/m*3 11.5 C 0.65884 km/h
661 23-10-2019 00:00:00 11.05972 C 9.52 g/m*3 11.06 C 1.19514 km/h
662 24-10-2019 00:00:00 14.06458 C 11.16 g/m*3 14.06 C 0.74618 km/h
663 25-10-2019 00:00:00 13.32951 C 10.11 g/m*3 13.33 C 3.23785 km/h
664 26-10-2019 00:00:00 13.17604 C 10.48 g/m*3 13.18 C 0.73993 km/h
665 27-10-2019 00:00:00 10.25174 C 8.89 g/m*3 10.25 C 2.11736 km/h
666 28-10-2019 00:00:00 6.33854 C 7.18 g/m*3 6.34 C 0.77847 km/h
667 29-10-2019 00:00:00 6.56632 C 6.94 g/m*3 6.57 C 1.2191 km/h
668 30-10-2019 00:00:00 3.52778 C 5.79 g/m*3 3.53 C 0.38368 km/h
669 31-10-2019 00:00:00 2.23438 C 5.28 g/m*3 2.23 C 0.67396 km/h
670 01-11-2019 00:00:00 6.02465 C 6.99 g/m*3 6.02 C 0.48958 km/h
671 02-11-2019 00:00:00 13.19792 C 10.36 g/m*3 13.2 C 6.07292 km/h
672 03-11-2019 00:00:00 11.85035 C 9.69 g/m*3 11.85 C 1.69514 km/h
673 04-11-2019 00:00:00 10.33333 C 8.92 g/m*3 10.33 C 3.08403 km/h
674 05-11-2019 00:00:00 9.70972 C 8.25 g/m*3 9.71 C 2.63854 km/h
675 06-11-2019 00:00:00 8.97569 C 8.38 g/m*3 8.98 C 1.65278 km/h
Sensor: Nr:Datum:Temp:Abs-Feuchte:Windchill:Wind:
Aussen-T/F 676 07-11-2019 00:00:00 7.93611 C 7.85 g/m*3 7.94 C 1.98715 km/h
677 08-11-2019 00:00:00 4.99444 C 6.56 g/m*3 4.99 C 0.32778 km/h
678 09-11-2019 00:00:00 4.99167 C 6.39 g/m*3 4.99 C 3.73299 km/h
679 10-11-2019 00:00:00 3.02188 C 5.69 g/m*3 3.02 C 1.31146 km/h
680 11-11-2019 00:00:00 4.67986 C 6.09 g/m*3 4.68 C 3.38854 km/h
681 12-11-2019 00:00:00 5.9125 C 6.37 g/m*3 5.91 C 4.80729 km/h
682 13-11-2019 00:00:00 5.47431 C 6.19 g/m*3 5.47 C 3.37118 km/h
683 14-11-2019 00:00:00 5.50729 C 6.04 g/m*3 5.51 C 1.95556 km/h
684 15-11-2019 00:00:00 4.68958 C 5.87 g/m*3 4.69 C 1.32639 km/h
685 16-11-2019 00:00:00 2.11389 C 5.35 g/m*3 2.11 C 0.59444 km/h
686 17-11-2019 00:00:00 3.09271 C 5.81 g/m*3 3.09 C 1.22049 km/h
687 18-11-2019 00:00:00 4.31181 C 6.25 g/m*3 4.31 C 4.39097 km/h
688 19-11-2019 00:00:00 3.99132 C 6.02 g/m*3 3.99 C 3.26597 km/h
689 20-11-2019 00:00:00 1.59583 C 5.12 g/m*3 1.6 C 1.20972 km/h
690 21-11-2019 00:00:00 1.90833 C 5.3 g/m*3 1.91 C 0.25556 km/h
691 22-11-2019 00:00:00 4.39097 C 6.22 g/m*3 4.39 C 2.3066 km/h
692 23-11-2019 00:00:00 5.38785 C 6.48 g/m*3 5.39 C 1.74201 km/h
693 24-11-2019 00:00:00 2.90104 C 5.74 g/m*3 2.9 C 0.06111 km/h
694 25-11-2019 00:00:00 4.80833 C 6.51 g/m*3 4.81 C 0.02778 km/h
695 26-11-2019 00:00:00 8.38542 C 8.03 g/m*3 8.39 C 0.9066 km/h
696 27-11-2019 00:00:00 10.34479 C 8.62 g/m*3 9.87 C 5.98819 km/h
697 28-11-2019 00:00:00 10.92778 C 8.33 g/m*3 8.91 C 16.34514 km/h
698 29-11-2019 00:00:00 6.44618 C 6.66 g/m*3 6.45 C 3.50382 km/h
699 30-11-2019 00:00:00 1.19549 C 5.06 g/m*3 1.2 C 0.78889 km/h
700 01-12-2019 00:00:00 1.79271 C 5.07 g/m*3 1.79 C 0.76285 km/h
Sensor: Nr:Datum:Temp:Abs-Feuchte:Windchill:Wind:
Aussen-T/F 701 02-12-2019 00:00:00 1.98646 C 5.18 g/m*3 1.99 C 2.41076 km/h
702 03-12-2019 00:00:00 4.75729 C 6.42 g/m*3 4.76 C 2.90799 km/h
703 04-12-2019 00:00:00 1.34375 C 5.12 g/m*3 1.34 C 0.38889 km/h
704 05-12-2019 00:00:00 -1.15625 C 4.33 g/m*3 -1.16 C 1.07292 km/h
705 06-12-2019 00:00:00 3.41285 C 5.7 g/m*3 1.37 C 7.65486 km/h
706 07-12-2019 00:00:00 8.70903 C 7.68 g/m*3 7.94 C 6.1684 km/h
707 08-12-2019 00:00:00 10.05903 C 8.11 g/m*3 7.98 C 15.03993 km/h
708 09-12-2019 00:00:00 7.72222 C 6.87 g/m*3 5.33 C 13.44757 km/h
709 10-12-2019 00:00:00 3.24757 C 5.5 g/m*3 3.25 C 3.26111 km/h
710 11-12-2019 00:00:00 3.97292 C 6.01 g/m*3 3.97 C 1.18958 km/h
711 12-12-2019 00:00:00 3.52361 C 5.79 g/m*3 3.52 C 2.6559 km/h
712 13-12-2019 00:00:00 4.09722 C 5.89 g/m*3 2.1 C 7.89479 km/h
713 14-12-2019 00:00:00 6.8934 C 6.59 g/m*3 4.55 C 12.00035 km/h
714 15-12-2019 00:00:00 7.90069 C 7.25 g/m*3 6.51 C 8.15799 km/h
715 16-12-2019 00:00:00 8.12951 C 8.07 g/m*3 8.13 C 1.30764 km/h
716 17-12-2019 00:00:00 10.43056 C 8.68 g/m*3 10.43 C 3.06632 km/h
717 18-12-2019 00:00:00 7.77014 C 7.62 g/m*3 7.77 C 2.52222 km/h
718 19-12-2019 00:00:00 5.57986 C 6.77 g/m*3 5.58 C 1.93472 km/h
719 20-12-2019 00:00:00 7.73264 C 7.5 g/m*3 7.01 C 5.51528 km/h
720 21-12-2019 00:00:00 7.24826 C 7.1 g/m*3 7.25 C 2.32604 km/h
721 22-12-2019 00:00:00 8.18368 C 7.45 g/m*3 6.88 C 7.96806 km/h
722 23-12-2019 00:00:00 7.83021 C 7.24 g/m*3 6.73 C 6.89375 km/h
723 24-12-2019 00:00:00 7.67986 C 7.22 g/m*3 6.56 C 6.89132 km/h
724 25-12-2019 00:00:00 7.66389 C 7.34 g/m*3 6.81 C 5.92118 km/h
725 26-12-2019 00:00:00 4.9934 C 6.53 g/m*3 4.99 C 0.22778 km/h
Sensor: Nr:Datum:Temp:Abs-Feuchte:Windchill:Wind:
Aussen-T/F 726 27-12-2019 00:00:00 5.12153 C 6.48 g/m*3 5.12 C 0.62813 km/h
727 28-12-2019 00:00:00 -0.27465 C 4.56 g/m*3 -0.27 C 0.24444 km/h
728 29-12-2019 00:00:00 -1.04618 C 4.3 g/m*3 -1.05 C 0.16111 km/h
729 30-12-2019 00:00:00 -0.88507 C 4.31 g/m*3 -0.89 C 0.57778 km/h
730 31-12-2019 00:00:00 0.52326 C 4.68 g/m*3 0.52 C 0.38889 km/h

Maximal/Minimal-Werte vom 01.01.2018 - 31.12.2019

Sensor Min Max Avg
Temp
(Aussen-T/F)
-10.4 °C
27-02-2018  07:25:00
40.4 °C
25-07-2019  16:20:00
11.51 °C
Abs-Feuchte
(Aussen-T/F)
1.98 g/m*3
28-02-2018  00:00:00
17.1 g/m*3
26-06-2019  00:00:00
8.79 g/m*3
Windchill
(Aussen-T/F)
-10.3 C
28-02-2018  00:00:00
28.69 C
25-07-2019  00:00:00
11.16 C

Die Daten stammen von einer Davis Vantage Pro 2 Wetter-Station und werden unter Linux mit der Software wview2wettercgi und aufbereitet. Alle Angaben erfolgen ohne Gewähr für ihre Vollständigkeit oder Richtigkeit.
Kontakt: Rainer Krienke krienke@uni-koblenz.de . Meine Webseiten an der Uni Koblenz oder privat.
Version: $Revision: 0.78 $